createdAt,value
2018-07-22T00:00:03.157Z,18.5
2018-07-22T00:05:02.448Z,18.5
2018-07-22T00:10:02.935Z,18.2
2018-07-22T00:15:02.293Z,18.2
2018-07-22T00:20:02.787Z,18.2
2018-07-22T00:25:03.211Z,18.1
2018-07-22T00:30:02.623Z,18.1
2018-07-22T00:35:03.104Z,18.1
2018-07-22T00:40:02.560Z,17.8
2018-07-22T00:45:02.941Z,17.8
2018-07-22T00:50:02.294Z,17.7
2018-07-22T00:55:02.700Z,17.7
2018-07-22T01:00:03.337Z,17.7
2018-07-22T01:05:02.698Z,17.7
2018-07-22T01:10:03.176Z,17.7
2018-07-22T01:15:02.551Z,17.5
2018-07-22T01:20:02.975Z,17.5
2018-07-22T01:25:02.355Z,17.5
2018-07-22T01:30:02.830Z,17.3
2018-07-22T01:35:02.248Z,17.2
2018-07-22T01:40:02.794Z,17.1
2018-07-22T01:45:03.159Z,17.2
2018-07-22T01:50:02.563Z,17.1
2018-07-22T01:55:03.247Z,17.1
2018-07-22T02:00:02.605Z,17.0
2018-07-22T02:05:02.991Z,16.7
2018-07-22T02:10:02.451Z,16.7
2018-07-22T02:15:02.834Z,16.7
2018-07-22T02:20:02.371Z,16.6
2018-07-22T02:25:02.839Z,16.6
2018-07-22T02:30:03.248Z,16.6
2018-07-22T02:35:02.891Z,16.2
2018-07-22T02:40:02.420Z,16.2
2018-07-22T02:45:02.845Z,16.2
2018-07-22T02:50:02.300Z,16.2
2018-07-22T02:55:02.749Z,16.2
2018-07-22T03:00:03.418Z,16.2
2018-07-22T03:05:02.850Z,16.2
2018-07-22T03:10:02.364Z,16.2
2018-07-22T03:15:02.742Z,16.2
2018-07-22T03:20:03.256Z,16.2
2018-07-22T03:25:02.680Z,16.0
2018-07-22T03:30:03.119Z,16.0
2018-07-22T03:35:02.693Z,16.0
2018-07-22T03:40:02.274Z,16.0
2018-07-22T03:45:02.706Z,16.0
2018-07-22T03:50:03.084Z,16.0
2018-07-22T03:55:02.524Z,16.2
2018-07-22T04:00:02.880Z,16.0
2018-07-22T04:05:02.359Z,16.0
2018-07-22T04:10:03.111Z,16.0
2018-07-22T04:15:02.529Z,16.0
2018-07-22T04:20:02.907Z,16.0
2018-07-22T04:25:02.280Z,16.0
2018-07-22T04:30:03.097Z,16.0
2018-07-22T04:35:02.515Z,16.2
2018-07-22T04:40:03.134Z,16.2
2018-07-22T04:45:02.564Z,16.3
2018-07-22T04:50:02.415Z,16.3
2018-07-22T04:55:02.814Z,16.6
2018-07-22T05:00:03.297Z,16.6
2018-07-22T05:05:02.661Z,16.7
2018-07-22T05:10:03.173Z,16.7
2018-07-22T05:15:02.665Z,17.0
2018-07-22T05:20:03.083Z,17.1
2018-07-22T05:25:02.441Z,17.2
2018-07-22T05:30:02.927Z,17.3
2018-07-22T05:35:02.374Z,17.5
2018-07-22T05:40:02.802Z,17.7
2018-07-22T05:45:02.312Z,18.1
2018-07-22T05:50:02.763Z,18.5
2018-07-22T05:55:03.174Z,18.8
2018-07-22T06:00:02.573Z,19.1
2018-07-22T06:05:03.091Z,19.2
2018-07-22T06:10:02.425Z,19.2
2018-07-22T06:15:02.865Z,19.1
2018-07-22T06:20:02.525Z,19.1
2018-07-22T06:25:02.940Z,19.3
2018-07-22T06:30:02.431Z,19.3
2018-07-22T06:35:02.830Z,20.0
2018-07-22T06:40:03.278Z,20.0
2018-07-22T06:45:02.674Z,20.7
2018-07-22T06:50:03.117Z,21.2
2018-07-22T06:55:02.513Z,21.3
2018-07-22T07:00:02.819Z,21.5
2018-07-22T07:05:03.269Z,21.3
2018-07-22T07:10:03.167Z,21.2
2018-07-22T07:15:02.546Z,21.5
2018-07-22T07:20:03.015Z,21.5
2018-07-22T07:25:02.446Z,21.5
2018-07-22T07:30:02.866Z,21.5
2018-07-22T07:35:02.363Z,21.5
2018-07-22T07:40:02.858Z,21.6
2018-07-22T07:45:02.370Z,21.8
2018-07-22T07:50:02.823Z,22.5
2018-07-22T07:55:02.716Z,22.7
2018-07-22T08:00:03.184Z,23.2
2018-07-22T08:05:02.577Z,23.7
2018-07-22T08:10:03.148Z,24.0
2018-07-22T08:15:02.590Z,24.5
2018-07-22T08:20:03.045Z,25.3
2018-07-22T08:25:02.579Z,25.3
2018-07-22T08:30:03.326Z,26.5
2018-07-22T08:35:02.776Z,26.1
2018-07-22T08:40:02.303Z,26.1
2018-07-22T08:45:02.683Z,26.6
2018-07-22T08:50:02.249Z,27.1
2018-07-22T08:55:02.687Z,27.7
2018-07-22T09:00:03.206Z,27.3
2018-07-22T09:05:02.647Z,28.5
2018-07-22T09:10:03.097Z,27.2
2018-07-22T09:15:02.448Z,28.2
2018-07-22T09:20:02.874Z,28.5
2018-07-22T09:25:02.262Z,29.0
2018-07-22T09:30:02.672Z,29.5
2018-07-22T09:35:03.179Z,28.7
2018-07-22T09:40:02.680Z,28.3
2018-07-22T09:45:03.293Z,29.2
2018-07-22T09:50:02.688Z,29.2
2018-07-22T09:55:03.100Z,29.2
2018-07-22T10:00:02.620Z,28.6
2018-07-22T10:05:03.323Z,28.8
2018-07-22T10:10:02.795Z,30.2
2018-07-22T10:15:03.160Z,29.1
2018-07-22T10:20:02.642Z,30.2
2018-07-22T10:25:03.115Z,30.5
2018-07-22T10:30:02.448Z,30.6
2018-07-22T10:35:02.930Z,28.7
2018-07-22T10:40:02.334Z,28.5
2018-07-22T10:45:02.802Z,30.0
2018-07-22T10:50:03.141Z,30.2
2018-07-22T10:55:02.484Z,30.2
2018-07-22T11:00:02.848Z,28.6
2018-07-22T11:05:02.249Z,27.5
2018-07-22T11:10:02.747Z,29.2
2018-07-22T11:15:03.080Z,29.2
2018-07-22T11:20:02.461Z,27.1
2018-07-22T11:25:02.847Z,27.1
2018-07-22T11:30:03.222Z,29.2
2018-07-22T11:35:02.627Z,28.2
2018-07-22T11:40:03.016Z,27.7
2018-07-22T11:45:02.502Z,27.7
2018-07-22T11:50:02.939Z,27.3
2018-07-22T11:55:02.383Z,27.1
2018-07-22T12:00:02.838Z,27.1
2018-07-22T12:05:02.419Z,26.7
2018-07-22T12:10:02.974Z,26.5
2018-07-22T12:15:02.324Z,26.1
2018-07-22T12:20:02.923Z,26.2
2018-07-22T12:25:02.307Z,26.2
2018-07-22T12:30:02.730Z,26.2
2018-07-22T12:35:03.118Z,26.5
2018-07-22T12:40:02.558Z,26.6
2018-07-22T12:45:02.872Z,26.5
2018-07-22T12:50:03.267Z,26.2
2018-07-22T12:55:02.666Z,25.7
2018-07-22T13:00:03.118Z,24.2
2018-07-22T13:05:02.502Z,20.6
2018-07-22T13:10:02.929Z,19.7
2018-07-22T13:15:02.359Z,19.7
2018-07-22T13:20:02.815Z,20.1
2018-07-22T13:25:03.167Z,20.2
2018-07-22T13:30:02.574Z,20.1
2018-07-22T13:35:03.000Z,20.1
2018-07-22T13:40:02.418Z,20.7
2018-07-22T13:45:02.832Z,21.0
2018-07-22T13:50:02.276Z,21.2
2018-07-22T13:55:02.695Z,21.7
2018-07-22T14:00:03.194Z,24.2
2018-07-22T14:05:02.567Z,26.5
2018-07-22T14:10:03.037Z,28.3
2018-07-22T14:15:02.451Z,30.1
2018-07-22T14:20:02.897Z,29.0
2018-07-22T14:25:02.533Z,28.2
2018-07-22T14:30:02.281Z,28.5
2018-07-22T14:35:02.864Z,29.1
2018-07-22T14:40:02.731Z,29.0
2018-07-22T14:45:02.249Z,30.2
2018-07-22T14:50:02.644Z,31.2
2018-07-22T14:55:03.064Z,32.0
2018-07-22T15:00:02.823Z,29.7
2018-07-22T15:05:02.259Z,28.6
2018-07-22T15:10:02.712Z,28.3
2018-07-22T15:15:03.124Z,28.3
2018-07-22T15:20:02.569Z,28.7
2018-07-22T15:25:02.946Z,28.7
2018-07-22T15:30:02.346Z,28.8
2018-07-22T15:35:02.812Z,27.7
2018-07-22T15:40:03.268Z,27.8
2018-07-22T15:45:02.902Z,30.1
2018-07-22T15:50:02.262Z,29.2
2018-07-22T15:55:02.717Z,29.5
2018-07-22T16:00:02.521Z,30.6
2018-07-22T16:05:02.947Z,31.0
2018-07-22T16:10:02.323Z,30.5
2018-07-22T16:15:02.699Z,30.6
2018-07-22T16:20:03.338Z,30.6
2018-07-22T16:25:02.673Z,30.5
2018-07-22T16:30:03.011Z,29.7
2018-07-22T16:35:02.375Z,30.2
2018-07-22T16:40:02.888Z,29.7
2018-07-22T16:45:02.302Z,29.7
2018-07-22T16:50:02.712Z,30.0
2018-07-22T16:55:03.172Z,29.6
2018-07-22T17:00:02.591Z,29.5
2018-07-22T17:05:03.067Z,29.2
2018-07-22T17:10:02.415Z,29.2
2018-07-22T17:15:02.745Z,29.2
2018-07-22T17:20:03.231Z,28.8
2018-07-22T17:25:02.542Z,28.7
2018-07-22T17:30:02.958Z,28.8
2018-07-22T17:35:02.430Z,28.2
2018-07-22T17:40:02.946Z,28.2
2018-07-22T17:45:02.404Z,28.3
2018-07-22T17:50:02.935Z,28.0
2018-07-22T17:55:02.324Z,28.0
2018-07-22T18:00:02.717Z,27.7
2018-07-22T18:05:03.255Z,27.8
2018-07-22T18:10:02.708Z,27.7
2018-07-22T18:15:03.185Z,27.7
2018-07-22T18:20:02.621Z,27.7
2018-07-22T18:25:03.076Z,27.3
2018-07-22T18:30:02.430Z,26.2
2018-07-22T18:35:02.863Z,26.5
2018-07-22T18:40:02.362Z,26.5
2018-07-22T18:45:02.915Z,26.5
2018-07-22T18:50:02.289Z,25.7
2018-07-22T18:55:02.802Z,24.8
2018-07-22T19:00:03.019Z,24.5
2018-07-22T19:05:02.533Z,24.3
2018-07-22T19:10:02.942Z,24.2
2018-07-22T19:15:02.352Z,24.0
2018-07-22T19:20:02.992Z,23.7
2018-07-22T19:25:02.352Z,23.3
2018-07-22T19:30:02.770Z,23.2
2018-07-22T19:35:02.280Z,23.0
2018-07-22T19:40:02.836Z,23.1
2018-07-22T19:45:02.557Z,22.7
2018-07-22T19:50:03.164Z,22.5
2018-07-22T19:55:02.572Z,22.5
2018-07-22T20:00:03.330Z,22.2
2018-07-22T20:05:02.836Z,22.1
2018-07-22T20:10:02.276Z,22.1
2018-07-22T20:15:02.746Z,22.0
2018-07-22T20:20:03.152Z,21.7
2018-07-22T20:25:02.681Z,21.6
2018-07-22T20:30:03.170Z,21.6
2018-07-22T20:35:02.569Z,21.5
2018-07-22T20:40:03.062Z,21.2
2018-07-22T20:45:02.836Z,21.2
2018-07-22T20:50:02.460Z,21.2
2018-07-22T20:55:02.799Z,21.2
2018-07-22T21:00:03.226Z,21.0
2018-07-22T21:05:02.581Z,20.8
2018-07-22T21:10:03.043Z,20.8
2018-07-22T21:15:02.524Z,20.7
2018-07-22T21:20:02.397Z,20.7
2018-07-22T21:25:02.741Z,20.7
2018-07-22T21:30:03.385Z,20.3
2018-07-22T21:35:02.951Z,20.2
2018-07-22T21:40:02.405Z,19.5
2018-07-22T21:45:02.829Z,19.7
2018-07-22T21:50:03.227Z,19.7
2018-07-22T21:55:02.641Z,19.7
2018-07-22T22:00:03.074Z,19.7
2018-07-22T22:05:02.538Z,19.7
2018-07-22T22:10:03.104Z,19.2
2018-07-22T22:15:03.124Z,19.0
2018-07-22T22:20:02.535Z,18.8
2018-07-22T22:25:03.001Z,18.7
2018-07-22T22:30:02.460Z,18.5
2018-07-22T22:35:02.932Z,18.5
2018-07-22T22:40:02.346Z,18.5
2018-07-22T22:45:02.797Z,18.6
2018-07-22T22:50:03.196Z,18.7
2018-07-22T22:55:02.503Z,18.7
2018-07-22T23:00:02.951Z,18.8
2018-07-22T23:05:02.307Z,18.7
2018-07-22T23:10:02.835Z,18.5
2018-07-22T23:15:02.280Z,18.2
2018-07-22T23:20:02.706Z,18.1
2018-07-22T23:25:03.052Z,17.8
2018-07-22T23:30:02.540Z,17.7
2018-07-22T23:35:02.997Z,17.7
2018-07-22T23:40:02.400Z,17.5
2018-07-22T23:45:02.793Z,17.5
2018-07-22T23:50:03.177Z,17.3
2018-07-22T23:55:02.574Z,17.3
